CBAPRS
Automatic Packet Reporting System for everyone...
Symbol
PositionLatitude: 51.853°
Longitude: 14.4071666667°
Speed0km/h
Course
AltitudeN/A
Comment11m CH 15 USB
Status
Path13HN318>APWW10 via ,TCPIP*,qAC,EIFEL-CB
Last heardWed, 12 Dec 2018 03:18:46 +0000

Time is in UTC

  • Wed, 12 Dec 2018 22:52:25 +0000: 13HN318>APWW10,,TCPIP*,qAC,EIFEL-CB:@235225h5151.18N/01424.43Ey11m CH 15 USB
  • Wed, 12 Dec 2018 22:22:25 +0000: 13HN318>APWW10,,TCPIP*,qAC,EIFEL-CB:@232225h5151.18N/01424.43Ey11m CH 15 USB
  • Wed, 12 Dec 2018 03:18:46 +0000: 13HN318>APWW10,,TCPIP*,qAC,EIFEL-CB:@041846h5151.18N/01424.43Ey11m CH 15 USB
  • Wed, 12 Dec 2018 02:48:46 +0000: 13HN318>APWW10,,TCPIP*,qAC,EIFEL-CB:@034846h5151.18N/01424.43Ey11m CH 15 USB
  • Wed, 12 Dec 2018 02:18:46 +0000: 13HN318>APWW10,,TCPIP*,qAC,EIFEL-CB:@031846h5151.18N/01424.43Ey11m CH 15 USB
  • Wed, 12 Dec 2018 01:48:46 +0000: 13HN318>APWW10,,TCPIP*,qAC,EIFEL-CB:@024846h5151.18N/01424.43Ey11m CH 15 USB
  • Wed, 12 Dec 2018 01:18:46 +0000: 13HN318>APWW10,,TCPIP*,qAC,EIFEL-CB:@021846h5151.18N/01424.43Ey11m CH 15 USB
  • Wed, 12 Dec 2018 00:52:25 +0000: 13HN318>APWW10,,TCPIP*,qAC,EIFEL-CB:@015225h5151.18N/01424.43Ey11m CH 15 USB
  • Wed, 12 Dec 2018 00:22:25 +0000: 13HN318>APWW10,,TCPIP*,qAC,EIFEL-CB:@012225h5151.18N/01424.43Ey11m CH 15 USB
  • Tue, 11 Dec 2018 22:50:39 +0000: 13HN318>APWW10,,TCPIP*,qAC,EIFEL-CB:@235039h5151.18N/01424.43Ey11m CH 15 USB
  • Tue, 11 Dec 2018 22:20:39 +0000: 13HN318>APWW10,,TCPIP*,qAC,EIFEL-CB:@232039h5151.18N/01424.43Ey11m CH 15 USB
  • Tue, 11 Dec 2018 21:52:25 +0000: 13HN318>APWW10,,TCPIP*,qAC,EIFEL-CB:@225225h5151.18N/01424.43Ey11m CH 15 USB
  • Tue, 11 Dec 2018 21:22:25 +0000: 13HN318>APWW10,,TCPIP*,qAC,EIFEL-CB:@222225h5151.18N/01424.43Ey11m CH 15 USB
  • Tue, 11 Dec 2018 20:52:25 +0000: 13HN318>APWW10,,TCPIP*,qAC,EIFEL-CB:@215225h5151.18N/01424.43Ey11m CH 15 USB
  • Tue, 11 Dec 2018 20:22:25 +0000: 13HN318>APWW10,,TCPIP*,qAC,EIFEL-CB:@212225h5151.18N/01424.43Ey11m CH 15 USB
  • Tue, 11 Dec 2018 19:52:25 +0000: 13HN318>APWW10,,TCPIP*,qAC,EIFEL-CB:@205225h5151.18N/01424.43Ey11m CH 15 USB
  • Tue, 11 Dec 2018 19:22:25 +0000: 13HN318>APWW10,,TCPIP*,qAC,EIFEL-CB:@202225h5151.18N/01424.43Ey11m CH 15 USB
  • Tue, 11 Dec 2018 18:52:25 +0000: 13HN318>APWW10,,TCPIP*,qAC,EIFEL-CB:@195225h5151.18N/01424.43Ey11m CH 15 USB
  • Tue, 11 Dec 2018 18:22:25 +0000: 13HN318>APWW10,,TCPIP*,qAC,EIFEL-CB:@192225h5151.18N/01424.43Ey11m CH 15 USB
  • Tue, 11 Dec 2018 17:52:25 +0000: 13HN318>APWW10,,TCPIP*,qAC,EIFEL-CB:@185225h5151.18N/01424.43Ey11m CH 15 USB
  • Tue, 11 Dec 2018 17:22:25 +0000: 13HN318>APWW10,,TCPIP*,qAC,EIFEL-CB:@182225h5151.18N/01424.43Ey11m CH 15 USB
  • Tue, 11 Dec 2018 16:52:25 +0000: 13HN318>APWW10,,TCPIP*,qAC,EIFEL-CB:@175225h5151.18N/01424.43Ey11m CH 15 USB
  • Tue, 11 Dec 2018 16:22:25 +0000: 13HN318>APWW10,,TCPIP*,qAC,EIFEL-CB:@172225h5151.18N/01424.43Ey11m CH 15 USB
  • Tue, 11 Dec 2018 15:52:25 +0000: 13HN318>APWW10,,TCPIP*,qAC,EIFEL-CB:@165225h5151.18N/01424.43Ey11m CH 15 USB
  • Tue, 11 Dec 2018 15:22:25 +0000: 13HN318>APWW10,,TCPIP*,qAC,EIFEL-CB:@162225h5151.18N/01424.43Ey11m CH 15 USB
  • Tue, 11 Dec 2018 14:52:25 +0000: 13HN318>APWW10,,TCPIP*,qAC,EIFEL-CB:@155225h5151.18N/01424.43Ey11m CH 15 USB
  • Tue, 11 Dec 2018 14:22:25 +0000: 13HN318>APWW10,,TCPIP*,qAC,EIFEL-CB:@152225h5151.18N/01424.43Ey11m CH 15 USB
  • Tue, 11 Dec 2018 13:52:25 +0000: 13HN318>APWW10,,TCPIP*,qAC,EIFEL-CB:@145225h5151.18N/01424.43Ey11m CH 15 USB
  • Tue, 11 Dec 2018 13:22:25 +0000: 13HN318>APWW10,,TCPIP*,qAC,EIFEL-CB:@142225h5151.18N/01424.43Ey11m CH 15 USB
  • Tue, 11 Dec 2018 12:52:25 +0000: 13HN318>APWW10,,TCPIP*,qAC,EIFEL-CB:@135225h5151.18N/01424.43Ey11m CH 15 USB
  • Tue, 11 Dec 2018 12:22:25 +0000: 13HN318>APWW10,,TCPIP*,qAC,EIFEL-CB:@132225h5151.18N/01424.43Ey11m CH 15 USB
  • Tue, 11 Dec 2018 11:22:25 +0000: 13HN318>APWW10,,TCPIP*,qAC,EIFEL-CB:@122225h5151.18N/01424.43Ey11m CH 15 USB
  • Tue, 11 Dec 2018 10:22:25 +0000: 13HN318>APWW10,,TCPIP*,qAC,EIFEL-CB:@112225h5151.18N/01424.43Ey11m CH 15 USB
  • Tue, 11 Dec 2018 09:52:25 +0000: 13HN318>APWW10,,TCPIP*,qAC,EIFEL-CB:@105225h5151.18N/01424.43Ey11m CH 15 USB
  • Tue, 11 Dec 2018 09:22:25 +0000: 13HN318>APWW10,,TCPIP*,qAC,EIFEL-CB:@102225h5151.18N/01424.43Ey11m CH 15 USB
  • Tue, 11 Dec 2018 08:52:25 +0000: 13HN318>APWW10,,TCPIP*,qAC,EIFEL-CB:@095225h5151.18N/01424.43Ey11m CH 15 USB
  • Tue, 11 Dec 2018 08:22:25 +0000: 13HN318>APWW10,,TCPIP*,qAC,EIFEL-CB:@092225h5151.18N/01424.43Ey11m CH 15 USB
  • Tue, 11 Dec 2018 07:52:25 +0000: 13HN318>APWW10,,TCPIP*,qAC,EIFEL-CB:@085225h5151.18N/01424.43Ey11m CH 15 USB
  • Tue, 11 Dec 2018 07:22:25 +0000: 13HN318>APWW10,,TCPIP*,qAC,EIFEL-CB:@082225h5151.18N/01424.43Ey11m CH 15 USB
  • Tue, 11 Dec 2018 06:52:25 +0000: 13HN318>APWW10,,TCPIP*,qAC,EIFEL-CB:@075225h5151.18N/01424.43Ey11m CH 15 USB
  • Tue, 11 Dec 2018 06:22:25 +0000: 13HN318>APWW10,,TCPIP*,qAC,EIFEL-CB:@072225h5151.18N/01424.43Ey11m CH 15 USB
  • Tue, 11 Dec 2018 05:52:25 +0000: 13HN318>APWW10,,TCPIP*,qAC,EIFEL-CB:@065225h5151.18N/01424.43Ey11m CH 15 USB
  • Tue, 11 Dec 2018 05:22:25 +0000: 13HN318>APWW10,,TCPIP*,qAC,EIFEL-CB:@062225h5151.18N/01424.43Ey11m CH 15 USB
  • Tue, 11 Dec 2018 04:52:25 +0000: 13HN318>APWW10,,TCPIP*,qAC,EIFEL-CB:@055225h5151.18N/01424.43Ey11m CH 15 USB
  • Tue, 11 Dec 2018 04:22:25 +0000: 13HN318>APWW10,,TCPIP*,qAC,EIFEL-CB:@052225h5151.18N/01424.43Ey11m CH 15 USB
  • Tue, 11 Dec 2018 03:52:25 +0000: 13HN318>APWW10,,TCPIP*,qAC,EIFEL-CB:@045225h5151.18N/01424.43Ey11m CH 15 USB
  • Tue, 11 Dec 2018 03:22:25 +0000: 13HN318>APWW10,,TCPIP*,qAC,EIFEL-CB:@042225h5151.18N/01424.43Ey11m CH 15 USB
  • Tue, 11 Dec 2018 03:15:31 +0000: 13HN318>APWW10,,TCPIP*,qAC,EIFEL-CB:@041531h5151.18N/01424.43Ey11m CH 15 USB
  • Tue, 11 Dec 2018 02:45:31 +0000: 13HN318>APWW10,,TCPIP*,qAC,EIFEL-CB:@034531h5151.18N/01424.43Ey11m CH 15 USB
  • Tue, 11 Dec 2018 02:15:31 +0000: 13HN318>APWW10,,TCPIP*,qAC,EIFEL-CB:@031531h5151.18N/01424.43Ey11m CH 15 USB
  • Tue, 11 Dec 2018 02:01:49 +0000: 13HN318>APWW10,,TCPIP*,qAC,EIFEL-CB:@030149h5151.18N/01424.43Ey11m CH 15 USB
  • Tue, 11 Dec 2018 01:49:40 +0000: 13HN318>APWW10,,TCPIP*,qAC,EIFEL-CB:@024940h5151.18N/01424.43Ey11m CH 15 USB
  • Tue, 11 Dec 2018 01:19:40 +0000: 13HN318>APWW10,,TCPIP*,qAC,EIFEL-CB:@021940h5151.18N/01424.43Ey11m CH 15 USB
  • Tue, 11 Dec 2018 00:50:39 +0000: 13HN318>APWW10,,TCPIP*,qAC,EIFEL-CB:@015039h5151.18N/01424.43Ey11m CH 15 USB
  • Tue, 11 Dec 2018 00:20:39 +0000: 13HN318>APWW10,,TCPIP*,qAC,EIFEL-CB:@012039h5151.18N/01424.43Ey11m CH 15 USB
  • Mon, 10 Dec 2018 23:50:39 +0000: 13HN318>APWW10,,TCPIP*,qAC,EIFEL-CB:@005039h5151.18N/01424.43Ey11m CH 15 USB
  • Mon, 10 Dec 2018 22:08:52 +0000: 13HN318>APWW10,,TCPIP*,qAC,EIFEL-CB:@230852h5151.18N/01424.43Ey11m CH 15 USB
  • Mon, 10 Dec 2018 21:50:39 +0000: 13HN318>APWW10,,TCPIP*,qAC,EIFEL-CB:@225039h5151.18N/01424.43Ey11m CH 15 USB
  • Mon, 10 Dec 2018 21:20:39 +0000: 13HN318>APWW10,,TCPIP*,qAC,EIFEL-CB:@222039h5151.18N/01424.43Ey11m CH 15 USB
  • Mon, 10 Dec 2018 20:50:39 +0000: 13HN318>APWW10,,TCPIP*,qAC,EIFEL-CB:@215039h5151.18N/01424.43Ey11m CH 15 USB
  • Mon, 10 Dec 2018 20:20:39 +0000: 13HN318>APWW10,,TCPIP*,qAC,EIFEL-CB:@212039h5151.18N/01424.43Ey11m CH 15 USB
  • Mon, 10 Dec 2018 19:50:39 +0000: 13HN318>APWW10,,TCPIP*,qAC,EIFEL-CB:@205039h5151.18N/01424.43Ey11m CH 15 USB
  • Mon, 10 Dec 2018 19:20:39 +0000: 13HN318>APWW10,,TCPIP*,qAC,EIFEL-CB:@202039h5151.18N/01424.43Ey11m CH 15 USB
  • Mon, 10 Dec 2018 18:50:39 +0000: 13HN318>APWW10,,TCPIP*,qAC,EIFEL-CB:@195039h5151.18N/01424.43Ey11m CH 15 USB
  • Mon, 10 Dec 2018 18:20:39 +0000: 13HN318>APWW10,,TCPIP*,qAC,EIFEL-CB:@192039h5151.18N/01424.43Ey11m CH 15 USB
  • Mon, 10 Dec 2018 17:50:39 +0000: 13HN318>APWW10,,TCPIP*,qAC,EIFEL-CB:@185039h5151.18N/01424.43Ey11m CH 15 USB
  • Mon, 10 Dec 2018 17:20:39 +0000: 13HN318>APWW10,,TCPIP*,qAC,EIFEL-CB:@182039h5151.18N/01424.43Ey11m CH 15 USB
  • Mon, 10 Dec 2018 16:50:39 +0000: 13HN318>APWW10,,TCPIP*,qAC,EIFEL-CB:@175039h5151.18N/01424.43Ey11m CH 15 USB
  • Mon, 10 Dec 2018 16:20:39 +0000: 13HN318>APWW10,,TCPIP*,qAC,EIFEL-CB:@172039h5151.18N/01424.43Ey11m CH 15 USB
  • Mon, 10 Dec 2018 15:50:39 +0000: 13HN318>APWW10,,TCPIP*,qAC,EIFEL-CB:@165039h5151.18N/01424.43Ey11m CH 15 USB
  • Mon, 10 Dec 2018 15:20:39 +0000: 13HN318>APWW10,,TCPIP*,qAC,EIFEL-CB:@162039h5151.18N/01424.43Ey11m CH 15 USB
  • Mon, 10 Dec 2018 14:50:39 +0000: 13HN318>APWW10,,TCPIP*,qAC,EIFEL-CB:@155039h5151.18N/01424.43Ey11m CH 15 USB
  • Mon, 10 Dec 2018 14:20:39 +0000: 13HN318>APWW10,,TCPIP*,qAC,EIFEL-CB:@152039h5151.18N/01424.43Ey11m CH 15 USB
  • Mon, 10 Dec 2018 13:50:39 +0000: 13HN318>APWW10,,TCPIP*,qAC,EIFEL-CB:@145039h5151.18N/01424.43Ey11m CH 15 USB
  • Mon, 10 Dec 2018 13:20:39 +0000: 13HN318>APWW10,,TCPIP*,qAC,EIFEL-CB:@142039h5151.18N/01424.43Ey11m CH 15 USB
  • Mon, 10 Dec 2018 12:50:39 +0000: 13HN318>APWW10,,TCPIP*,qAC,EIFEL-CB:@135039h5151.18N/01424.43Ey11m CH 15 USB
  • Mon, 10 Dec 2018 12:20:39 +0000: 13HN318>APWW10,,TCPIP*,qAC,EIFEL-CB:@132039h5151.18N/01424.43Ey11m CH 15 USB
  • Mon, 10 Dec 2018 11:50:39 +0000: 13HN318>APWW10,,TCPIP*,qAC,EIFEL-CB:@125039h5151.18N/01424.43Ey11m CH 15 USB
  • Mon, 10 Dec 2018 10:50:39 +0000: 13HN318>APWW10,,TCPIP*,qAC,EIFEL-CB:@115039h5151.18N/01424.43Ey11m CH 15 USB
  • Mon, 10 Dec 2018 10:20:39 +0000: 13HN318>APWW10,,TCPIP*,qAC,EIFEL-CB:@112039h5151.18N/01424.43Ey11m CH 15 USB
  • Mon, 10 Dec 2018 09:50:39 +0000: 13HN318>APWW10,,TCPIP*,qAC,EIFEL-CB:@105039h5151.18N/01424.43Ey11m CH 15 USB
  • Mon, 10 Dec 2018 09:20:39 +0000: 13HN318>APWW10,,TCPIP*,qAC,EIFEL-CB:@102039h5151.18N/01424.43Ey11m CH 15 USB
  • Mon, 10 Dec 2018 08:50:39 +0000: 13HN318>APWW10,,TCPIP*,qAC,EIFEL-CB:@095039h5151.18N/01424.43Ey11m CH 15 USB
  • Mon, 10 Dec 2018 08:20:39 +0000: 13HN318>APWW10,,TCPIP*,qAC,EIFEL-CB:@092039h5151.18N/01424.43Ey11m CH 15 USB
  • Mon, 10 Dec 2018 07:50:39 +0000: 13HN318>APWW10,,TCPIP*,qAC,EIFEL-CB:@085039h5151.18N/01424.43Ey11m CH 15 USB
  • Mon, 10 Dec 2018 07:20:39 +0000: 13HN318>APWW10,,TCPIP*,qAC,EIFEL-CB:@082039h5151.18N/01424.43Ey11m CH 15 USB
  • Mon, 10 Dec 2018 06:50:39 +0000: 13HN318>APWW10,,TCPIP*,qAC,EIFEL-CB:@075039h5151.18N/01424.43Ey11m CH 15 USB
  • Mon, 10 Dec 2018 06:20:39 +0000: 13HN318>APWW10,,TCPIP*,qAC,EIFEL-CB:@072039h5151.18N/01424.43Ey11m CH 15 USB
  • Mon, 10 Dec 2018 05:50:39 +0000: 13HN318>APWW10,,TCPIP*,qAC,EIFEL-CB:@065039h5151.18N/01424.43Ey11m CH 15 USB
  • Mon, 10 Dec 2018 05:20:39 +0000: 13HN318>APWW10,,TCPIP*,qAC,EIFEL-CB:@062039h5151.18N/01424.43Ey11m CH 15 USB
  • Mon, 10 Dec 2018 04:50:39 +0000: 13HN318>APWW10,,TCPIP*,qAC,EIFEL-CB:@055039h5151.18N/01424.43Ey11m CH 15 USB
  • Mon, 10 Dec 2018 04:20:39 +0000: 13HN318>APWW10,,TCPIP*,qAC,EIFEL-CB:@052039h5151.18N/01424.43Ey11m CH 15 USB
  • Mon, 10 Dec 2018 03:50:39 +0000: 13HN318>APWW10,,TCPIP*,qAC,EIFEL-CB:@045039h5151.18N/01424.43Ey11m CH 15 USB
  • Mon, 10 Dec 2018 03:20:39 +0000: 13HN318>APWW10,,TCPIP*,qAC,EIFEL-CB:@042039h5151.18N/01424.43Ey11m CH 15 USB
  • Mon, 10 Dec 2018 02:50:39 +0000: 13HN318>APWW10,,TCPIP*,qAC,EIFEL-CB:@035039h5151.18N/01424.43Ey11m CH 15 USB
  • Mon, 10 Dec 2018 01:50:39 +0000: 13HN318>APWW10,,TCPIP*,qAC,EIFEL-CB:@025039h5151.18N/01424.43Ey11m CH 15 USB
  • Mon, 10 Dec 2018 01:20:39 +0000: 13HN318>APWW10,,TCPIP*,qAC,EIFEL-CB:@022039h5151.18N/01424.43Ey11m CH 15 USB
  • Mon, 10 Dec 2018 01:08:52 +0000: 13HN318>APWW10,,TCPIP*,qAC,EIFEL-CB:@020852h5151.18N/01424.43Ey11m CH 15 USB
  • Mon, 10 Dec 2018 00:38:52 +0000: 13HN318>APWW10,,TCPIP*,qAC,EIFEL-CB:@013852h5151.18N/01424.43Ey11m CH 15 USB
  • Sun, 9 Dec 2018 22:23:01 +0000: 13HN318>APWW10,,TCPIP*,qAC,EIFEL-CB:@232301h5151.18N/01424.43Ey11m CH 15 USB